Time;durP1;ratioP1;P1;durP2;ratioP2;P2;SDS_P1;SDS_P2;PMS_P1;PMS_P2;Temp;Humidity;BMP_temperature;BMP_pressure;BME280_temperature;BME280_humidity;BME280_pressure;Samples;Min_cycle;Max_cycle;Signal;HPM_P1;HPM_P2
2021/07/15 00:00:40;;;;;;;5.80;5.30;;;16.60;99.90;;;;;;4954058;28;20432;-76
2021/07/15 00:03:10;;;;;;;5.97;5.37;;;16.70;99.90;;;;;;4954039;28;20436;-76
2021/07/15 00:05:37;;;;;;;5.90;5.40;;;16.70;99.90;;;;;;4953656;28;20488;-76
2021/07/15 00:08:04;;;;;;;5.87;5.37;;;16.80;99.90;;;;;;4952619;28;20448;-76
2021/07/15 00:10:51;;;;;;;6.13;4.87;;;16.80;99.90;;;;;;4953727;28;20465;-76
2021/07/15 00:13:17;;;;;;;5.67;5.07;;;16.70;99.90;;;;;;4953455;28;20483;-76
2021/07/15 00:15:51;;;;;;;4.70;4.40;;;16.70;99.90;;;;;;4953638;28;20417;-76
2021/07/15 00:18:21;;;;;;;4.33;4.03;;;16.70;99.90;;;;;;4951527;29;20441;-76
2021/07/15 00:20:48;;;;;;;5.43;4.97;;;16.70;99.90;;;;;;4952207;28;20504;-75
2021/07/15 00:23:14;;;;;;;5.30;4.87;;;16.80;99.90;;;;;;4952591;28;20444;-75
2021/07/15 00:25:41;;;;;;;6.50;5.90;;;16.90;99.90;;;;;;4953298;28;20449;-75
2021/07/15 00:28:07;;;;;;;5.83;5.33;;;16.80;99.90;;;;;;4952780;28;20445;-75
2021/07/15 00:30:32;;;;;;;6.07;5.47;;;16.80;99.90;;;;;;4953406;28;20460;-75
2021/07/15 00:32:58;;;;;;;5.37;4.83;;;16.80;99.90;;;;;;4951711;28;20192;-75
2021/07/15 00:35:24;;;;;;;4.13;3.83;;;16.90;99.90;;;;;;4952302;28;20204;-73
2021/07/15 00:37:49;;;;;;;4.60;4.20;;;17.00;99.90;;;;;;4944301;29;20201;-73
2021/07/15 10:29:32;;;;;;;1.60;1.50;;;23.40;99.90;;;;;;5090562;28;20435;-75
2021/07/15 10:32:01;;;;;;;2.37;1.50;;;23.60;99.90;;;;;;5088075;28;20438;-76
2021/07/15 10:34:37;;;;;;;2.30;2.10;;;23.60;99.90;;;;;;5009637;28;20441;-76
2021/07/15 10:37:04;;;;;;;2.30;1.90;;;23.70;99.90;;;;;;4916783;29;20438;-75
2021/07/15 10:39:33;;;;;;;1.93;1.60;;;23.70;99.90;;;;;;4924287;28;20471;-75
2021/07/15 10:42:01;;;;;;;2.03;1.83;;;23.60;99.90;;;;;;4949777;28;20440;-75
2021/07/15 10:44:27;;;;;;;3.17;1.97;;;23.50;99.90;;;;;;4925545;29;20478;-76
2021/07/15 10:49:46;;;;;;;2.30;1.77;;;23.40;99.90;;;;;;5137630;27;20550;-75
2021/07/15 10:52:18;;;;;;;3.30;2.60;;;23.20;99.90;;;;;;5100116;28;20466;-75
2021/07/15 10:54:46;;;;;;;2.77;2.57;;;23.00;99.90;;;;;;5064510;28;20860;-75
2021/07/15 10:57:13;;;;;;;4.93;3.77;;;22.80;99.90;;;;;;5045608;28;20932;-73
2021/07/15 10:59:39;;;;;;;3.43;2.73;;;22.70;99.90;;;;;;4981805;28;20963;-75
2021/07/15 11:02:29;;;;;;;2.30;2.10;;;22.60;99.90;;;;;;4888614;29;20500;-75
2021/07/15 11:05:26;;;;;;;2.77;2.07;;;22.60;99.90;;;;;;4687473;29;1243008;-77
2021/07/15 11:07:54;;;;;;;2.53;2.33;;;22.60;99.90;;;;;;4755375;29;20287;-75
2021/07/15 11:10:24;;;;;;;2.50;2.03;;;22.60;99.90;;;;;;4803142;29;20472;-75
2021/07/15 11:13:04;;;;;;;5.60;2.80;;;22.60;99.90;;;;;;4803630;29;20454;-74
2021/07/15 11:15:57;;;;;;;2.57;2.37;;;22.60;99.90;;;;;;4794091;29;20436;-75
2021/07/15 11:18:49;;;;;;;2.97;2.60;;;22.60;99.90;;;;;;4818977;29;20447;-75
2021/07/15 11:21:27;;;;;;;2.50;2.30;;;22.60;99.90;;;;;;4807512;29;20460;-75
2021/07/15 11:24:09;;;;;;;2.30;1.83;;;22.70;99.90;;;;;;4808066;29;20451;-77
2021/07/15 11:26:42;;;;;;;2.53;2.23;;;22.80;99.90;;;;;;4818586;29;20935;-75
2021/07/15 11:29:11;;;;;;;3.77;2.73;;;22.90;99.90;;;;;;4812763;29;20476;-76
2021/07/15 11:31:57;;;;;;;3.10;2.27;;;23.00;99.90;;;;;;4812212;29;20550;-76
2021/07/15 11:34:40;;;;;;;6.20;5.43;;;23.10;99.90;;;;;;4829449;29;20788;-75
2021/07/15 11:37:37;;;;;;;4.03;3.63;;;23.30;99.90;;;;;;4806928;29;20528;-76
2021/07/15 11:40:26;;;;;;;4.63;3.03;;;23.30;99.90;;;;;;4816075;29;20515;-75
2021/07/15 11:42:52;;;;;;;3.20;2.70;;;23.40;99.90;;;;;;4817324;29;20470;-75
2021/07/15 11:45:19;;;;;;;2.70;2.37;;;23.40;99.90;;;;;;4818639;29;20421;-74
2021/07/15 11:47:53;;;;;;;3.20;2.50;;;23.40;99.90;;;;;;4833396;29;20282;-75
2021/07/15 11:50:39;;;;;;;7.07;3.07;;;23.40;99.90;;;;;;4804478;29;20420;-72
2021/07/15 11:53:24;;;;;;;4.40;2.60;;;23.40;99.90;;;;;;4802300;29;20582;-72
2021/07/15 11:55:53;;;;;;;2.97;2.50;;;23.30;99.90;;;;;;4814076;29;20543;-73
2021/07/15 11:58:47;;;;;;;4.50;2.67;;;23.20;99.90;;;;;;4794313;29;20429;-73
2021/07/15 12:01:29;;;;;;;3.30;3.00;;;23.10;99.90;;;;;;4788273;29;20472;-73
2021/07/15 12:04:09;;;;;;;5.67;3.50;;;23.00;99.90;;;;;;4765809;29;20494;-73
2021/07/15 12:06:44;;;;;;;3.10;2.63;;;22.90;99.90;;;;;;4722662;29;20973;-75
2021/07/15 12:09:15;;;;;;;4.80;3.53;;;22.80;99.90;;;;;;4786112;30;20509;-74
2021/07/15 12:11:45;;;;;;;5.83;5.20;;;22.70;99.90;;;;;;4785882;30;20426;-74
2021/07/15 12:14:11;;;;;;;5.73;3.97;;;22.70;99.90;;;;;;4778397;30;20509;-74
2021/07/15 12:16:41;;;;;;;5.73;3.57;;;22.70;99.90;;;;;;4787225;29;20445;-75
2021/07/15 12:19:12;;;;;;;4.73;4.10;;;22.70;99.90;;;;;;4795076;29;21060;-76
2021/07/15 12:21:40;;;;;;;3.63;3.20;;;22.60;99.90;;;;;;4786740;29;20435;-76
2021/07/15 12:24:15;;;;;;;4.47;3.40;;;22.40;99.90;;;;;;4800129;29;20457;-76
2021/07/15 12:26:42;;;;;;;4.40;4.00;;;22.10;99.90;;;;;;4787329;29;20440;-76
2021/07/15 12:29:13;;;;;;;5.30;4.50;;;22.20;99.90;;;;;;4786097;29;20488;-76
2021/07/15 12:31:40;;;;;;;4.77;4.47;;;22.20;99.90;;;;;;4799956;29;20453;-76
2021/07/15 12:34:09;;;;;;;4.23;3.90;;;22.20;99.90;;;;;;4790385;29;20468;-76
2021/07/15 12:36:39;;;;;;;4.60;4.20;;;22.20;99.90;;;;;;4800320;29;20481;-75
2021/07/15 12:39:09;;;;;;;5.00;4.33;;;22.40;99.90;;;;;;4781564;29;20457;-75
2021/07/15 12:41:38;;;;;;;4.37;3.80;;;22.50;99.90;;;;;;4797478;29;20509;-75
2021/07/15 12:44:14;;;;;;;4.57;4.17;;;22.60;99.90;;;;;;4785859;30;20450;-75
2021/07/15 12:47:03;;;;;;;4.40;3.97;;;22.70;99.90;;;;;;4794959;29;20531;-75
2021/07/15 12:49:28;;;;;;;4.97;4.30;;;22.70;99.90;;;;;;4785440;29;20573;-75
2021/07/15 12:51:59;;;;;;;5.00;4.23;;;22.70;99.90;;;;;;4800080;29;20636;-75
2021/07/15 12:54:31;;;;;;;4.63;4.20;;;22.70;99.90;;;;;;4779586;30;20188;-75
2021/07/15 12:56:58;;;;;;;5.03;4.63;;;22.80;99.90;;;;;;4782284;29;20449;-76
2021/07/15 12:59:25;;;;;;;5.07;4.57;;;22.70;99.90;;;;;;4772214;30;20426;-75
2021/07/15 13:01:51;;;;;;;6.20;4.73;;;22.40;99.90;;;;;;4776326;29;20526;-76
2021/07/15 13:04:21;;;;;;;4.27;3.87;;;22.20;99.90;;;;;;4776630;29;1059353;-77
2021/07/15 13:06:53;;;;;;;5.83;5.00;;;22.20;99.90;;;;;;4884273;29;20424;-76
2021/07/15 13:09:38;;;;;;;5.40;4.90;;;22.20;99.90;;;;;;4925412;29;20880;-76
2021/07/15 13:15:10;;;;;;;9.13;4.97;;;22.50;99.90;;;;;;4939261;29;20433;-75
2021/07/15 13:17:42;;;;;;;5.83;5.00;;;22.70;99.90;;;;;;4938070;29;20505;-76
2021/07/15 13:20:19;;;;;;;6.23;4.80;;;22.80;99.90;;;;;;4929780;29;20460;-75
2021/07/15 13:22:48;;;;;;;4.40;3.67;;;23.10;99.90;;;;;;4936704;29;20441;-76
2021/07/15 13:25:16;;;;;;;4.83;4.33;;;23.40;99.90;;;;;;4939270;29;20433;-76
2021/07/15 13:27:43;;;;;;;5.13;4.23;;;23.70;99.90;;;;;;4936911;29;20429;-75
2021/07/15 13:30:12;;;;;;;4.30;3.80;;;23.90;99.90;;;;;;4937352;29;20581;-76
2021/07/15 13:32:37;;;;;;;4.37;3.97;;;24.10;99.90;;;;;;4948619;29;20759;-75
2021/07/15 13:35:09;;;;;;;4.90;3.73;;;24.30;99.90;;;;;;4937155;29;20446;-75
2021/07/15 13:37:35;;;;;;;4.93;4.30;;;24.40;99.90;;;;;;4937151;29;20272;-75
2021/07/15 13:40:13;;;;;;;7.70;4.20;;;24.40;99.90;;;;;;4937960;29;20410;-76
2021/07/15 13:42:39;;;;;;;4.33;3.93;;;24.50;99.90;;;;;;4932447;29;20330;-75
2021/07/15 13:45:07;;;;;;;4.53;3.90;;;24.50;99.90;;;;;;4918248;29;20423;-76
2021/07/15 13:47:38;;;;;;;5.70;4.63;;;24.50;99.90;;;;;;4917783;29;20215;-75
2021/07/15 13:50:09;;;;;;;4.60;4.20;;;24.50;99.90;;;;;;4933007;29;20454;-76
2021/07/15 13:52:37;;;;;;;6.67;5.00;;;24.50;99.90;;;;;;4920483;29;20469;-76
2021/07/15 13:55:13;;;;;;;6.43;4.97;;;24.60;99.90;;;;;;4940989;29;20464;-76
2021/07/15 13:58:01;;;;;;;4.70;4.20;;;24.60;99.90;;;;;;4917338;29;20445;-76
2021/07/15 14:00:32;;;;;;;4.43;4.03;;;24.60;99.90;;;;;;4931581;29;20418;-76
2021/07/15 14:03:00;;;;;;;4.30;3.90;;;24.80;99.90;;;;;;4931668;28;20562;-75
2021/07/15 14:05:40;;;;;;;4.70;4.27;;;24.80;99.90;;;;;;4910179;29;20445;-74
2021/07/15 14:08:08;;;;;;;4.40;3.90;;;24.90;99.90;;;;;;4922874;29;20474;-75
2021/07/15 14:10:34;;;;;;;6.70;4.53;;;24.80;99.90;;;;;;4952897;28;20774;-75
2021/07/15 14:13:00;;;;;;;4.50;4.10;;;24.80;99.90;;;;;;4954685;28;20444;-75
2021/07/15 14:15:47;;;;;;;6.27;4.40;;;24.80;99.90;;;;;;4951206;28;20433;-75
2021/07/15 14:18:23;;;;;;;4.30;3.90;;;24.90;99.90;;;;;;4951832;29;20368;-75
2021/07/15 14:20:54;;;;;;;5.10;4.60;;;25.10;99.90;;;;;;4943920;28;20517;-75
2021/07/15 14:23:22;;;;;;;6.53;4.60;;;25.30;99.90;;;;;;4951438;28;20459;-75
2021/07/15 14:25:50;;;;;;;4.70;4.20;;;25.40;99.90;;;;;;4949003;28;20425;-76
2021/07/15 14:28:18;;;;;;;4.83;4.43;;;25.50;99.90;;;;;;4949512;29;20831;-75
2021/07/15 14:30:44;;;;;;;5.73;4.60;;;25.60;99.90;;;;;;4952690;29;20511;-75
2021/07/15 14:33:10;;;;;;;6.83;5.63;;;25.60;99.90;;;;;;4950780;28;20962;-73
2021/07/15 14:35:39;;;;;;;10.43;6.30;;;25.70;99.90;;;;;;4950394;29;20942;-74
2021/07/15 14:38:06;;;;;;;6.40;5.90;;;25.50;99.90;;;;;;4951408;29;20460;-73
2021/07/15 14:40:32;;;;;;;6.73;5.77;;;25.50;99.90;;;;;;4951530;28;20424;-74
2021/07/15 14:42:59;;;;;;;7.10;6.40;;;25.30;99.90;;;;;;4950130;28;20449;-73
2021/07/15 14:45:25;;;;;;;6.27;5.67;;;25.40;99.90;;;;;;4951501;28;20187;-74
2021/07/15 14:47:51;;;;;;;5.83;5.27;;;25.30;99.90;;;;;;4949133;29;20534;-73
2021/07/15 14:50:24;;;;;;;8.50;5.73;;;25.60;99.90;;;;;;4950420;29;20433;-73
2021/07/15 14:52:50;;;;;;;6.43;5.83;;;25.80;99.90;;;;;;4942481;28;20452;-73
2021/07/15 14:55:16;;;;;;;6.30;5.70;;;25.80;99.90;;;;;;4951517;28;20500;-73
2021/07/15 14:57:41;;;;;;;7.00;6.50;;;25.80;99.90;;;;;;4951834;28;20208;-73
2021/07/15 15:00:10;;;;;;;9.17;7.03;;;25.80;99.90;;;;;;4951653;28;20421;-73
2021/07/15 15:02:36;;;;;;;7.37;6.67;;;25.80;99.90;;;;;;4951732;28;20217;-73
2021/07/15 15:05:06;;;;;;;7.33;6.73;;;25.70;99.90;;;;;;4977501;28;20863;-73
2021/07/15 15:07:32;;;;;;;8.10;7.40;;;25.60;99.90;;;;;;5006716;28;20506;-73
2021/07/15 15:09:58;;;;;;;8.23;7.50;;;25.40;99.90;;;;;;5009814;28;20509;-75
2021/07/15 15:12:24;;;;;;;9.13;8.33;;;25.10;99.90;;;;;;5009499;28;20210;-73
2021/07/15 15:14:49;;;;;;;8.57;7.87;;;24.80;99.90;;;;;;5013687;28;20678;-72
2021/07/15 15:17:15;;;;;;;8.73;7.93;;;24.80;99.90;;;;;;5010312;28;20414;-73
2021/07/15 15:19:40;;;;;;;10.13;7.90;;;24.70;99.90;;;;;;5009249;28;20200;-73
2021/07/15 15:22:06;;;;;;;7.83;7.23;;;24.70;99.90;;;;;;5008988;28;20223;-73
2021/07/15 15:24:32;;;;;;;8.37;7.57;;;24.40;99.90;;;;;;5009619;28;20516;-73
2021/07/15 15:27:00;;;;;;;9.67;8.80;;;24.50;99.90;;;;;;5009540;28;20557;-73
2021/07/15 15:29:27;;;;;;;8.90;8.20;;;24.50;99.90;;;;;;5009704;28;20246;-74
2021/07/15 15:31:52;;;;;;;8.47;7.77;;;24.60;99.90;;;;;;5009936;28;20418;-73
2021/07/15 15:34:18;;;;;;;9.93;9.10;;;24.50;99.90;;;;;;5010036;28;20429;-73
2021/07/15 15:36:44;;;;;;;9.53;8.63;;;24.50;99.90;;;;;;5015448;28;20230;-73
2021/07/15 15:39:10;;;;;;;8.97;8.20;;;24.60;99.90;;;;;;5013849;28;20195;-73
2021/07/15 15:41:35;;;;;;;10.47;9.43;;;24.50;99.90;;;;;;5013699;28;20192;-74
2021/07/15 15:44:01;;;;;;;9.80;8.43;;;24.40;99.90;;;;;;5015910;28;20195;-73
2021/07/15 15:46:26;;;;;;;9.07;8.27;;;24.40;99.90;;;;;;5015534;28;20568;-73
2021/07/15 15:48:52;;;;;;;9.20;8.40;;;24.40;99.90;;;;;;5017167;28;20188;-74
2021/07/15 15:51:18;;;;;;;10.20;8.97;;;24.50;99.90;;;;;;5015526;28;20186;-74
2021/07/15 15:53:44;;;;;;;9.43;8.50;;;24.50;99.90;;;;;;5016910;28;20687;-74
2021/07/15 15:56:10;;;;;;;9.43;8.47;;;24.70;99.90;;;;;;5016780;28;20258;-74
2021/07/15 15:58:36;;;;;;;9.13;8.23;;;24.80;99.90;;;;;;5016596;28;20406;-73
2021/07/15 16:01:02;;;;;;;9.10;8.30;;;24.80;99.90;;;;;;5016807;28;20411;-73
2021/07/15 16:03:28;;;;;;;9.67;8.63;;;24.60;99.90;;;;;;5016350;28;20207;-73
2021/07/15 16:05:53;;;;;;;10.63;8.77;;;24.60;99.90;;;;;;5036549;28;20428;-74
2021/07/15 16:08:20;;;;;;;8.20;7.50;;;24.70;99.90;;;;;;5036895;28;20198;-73
2021/07/15 16:10:48;;;;;;;9.03;8.27;;;24.80;99.90;;;;;;5036860;28;20163;-73
2021/07/15 16:13:14;;;;;;;7.90;7.30;;;24.80;99.90;;;;;;5007219;28;20467;-73
2021/07/15 16:15:41;;;;;;;9.47;8.53;;;24.70;99.90;;;;;;4979664;28;20437;-73
2021/07/15 16:18:08;;;;;;;9.40;8.53;;;24.60;99.90;;;;;;4996513;28;20204;-73
2021/07/15 16:20:34;;;;;;;8.93;8.13;;;24.50;99.90;;;;;;4997725;28;20411;-73
2021/07/15 16:23:02;;;;;;;10.63;8.60;;;24.50;99.90;;;;;;4996419;28;20549;-73
2021/07/15 16:25:29;;;;;;;10.80;9.03;;;24.50;99.90;;;;;;4996483;28;20407;-73
2021/07/15 16:27:56;;;;;;;10.77;9.87;;;24.40;99.90;;;;;;4996912;28;20466;-74
2021/07/15 16:30:26;;;;;;;10.20;9.30;;;24.30;99.90;;;;;;4996376;28;20811;-73
2021/07/15 16:32:54;;;;;;;9.33;8.53;;;24.20;99.90;;;;;;4996562;28;20426;-73
2021/07/15 16:35:20;;;;;;;9.53;8.73;;;24.00;99.90;;;;;;4995942;28;20489;-73
2021/07/15 16:37:46;;;;;;;9.90;9.10;;;24.00;99.90;;;;;;5029163;28;20425;-73
2021/07/15 16:40:15;;;;;;;9.67;8.87;;;23.90;99.90;;;;;;5020550;28;20294;-72
2021/07/15 16:42:46;;;;;;;10.80;9.70;;;24.00;99.90;;;;;;5011515;28;20448;-73
2021/07/15 16:45:12;;;;;;;10.27;9.47;;;23.90;99.90;;;;;;5031837;28;20434;-73
2021/07/15 16:47:38;;;;;;;10.27;9.27;;;23.90;99.90;;;;;;5024350;28;20426;-74
2021/07/15 16:50:05;;;;;;;12.10;11.00;;;24.00;99.90;;;;;;5027359;28;20417;-73
2021/07/15 16:52:31;;;;;;;10.63;9.63;;;23.90;99.90;;;;;;5000352;28;20200;-74
2021/07/15 16:54:57;;;;;;;11.33;10.40;;;23.90;99.90;;;;;;5032234;28;21004;-73
2021/07/15 16:57:22;;;;;;;11.60;9.90;;;23.80;99.90;;;;;;5015546;28;20469;-72
2021/07/15 16:59:48;;;;;;;9.13;8.33;;;23.80;99.90;;;;;;5012568;28;20198;-73
2021/07/15 17:02:15;;;;;;;11.87;10.83;;;23.80;99.90;;;;;;5015242;28;20234;-73
2021/07/15 17:04:40;;;;;;;11.60;10.37;;;24.00;99.90;;;;;;4990126;28;20507;-73
2021/07/15 17:07:06;;;;;;;11.90;10.90;;;24.00;99.90;;;;;;4970342;28;20448;-73
2021/07/15 17:09:32;;;;;;;12.47;11.20;;;23.90;99.90;;;;;;4971064;28;20256;-73
2021/07/15 17:11:59;;;;;;;17.67;15.97;;;23.90;99.90;;;;;;4972585;28;20259;-73
2021/07/15 17:14:24;;;;;;;19.47;17.07;;;23.70;99.90;;;;;;4972240;28;20439;-73
2021/07/15 17:16:50;;;;;;;19.27;17.40;;;23.50;99.90;;;;;;4967856;28;20439;-73
2021/07/15 17:19:15;;;;;;;20.70;18.67;;;23.30;99.90;;;;;;4972622;28;20184;-76
2021/07/15 17:21:41;;;;;;;21.13;19.00;;;23.10;99.90;;;;;;4955774;28;20220;-76
2021/07/15 17:24:07;;;;;;;22.23;19.80;;;23.00;99.90;;;;;;4973061;28;20200;-78
2021/07/15 17:26:33;;;;;;;21.40;19.40;;;23.00;99.90;;;;;;4972000;28;20199;-79
2021/07/15 17:28:58;;;;;;;20.47;18.60;;;22.90;99.90;;;;;;4972790;28;20204;-77
2021/07/15 17:31:27;;;;;;;21.70;19.70;;;22.80;99.90;;;;;;4973926;28;20480;-77
2021/07/15 17:33:53;;;;;;;21.07;19.07;;;22.80;99.90;;;;;;4978448;28;20346;-77
2021/07/15 17:36:21;;;;;;;23.20;21.00;;;22.70;99.90;;;;;;4979415;28;20469;-77
2021/07/15 17:38:47;;;;;;;23.73;21.53;;;22.70;99.90;;;;;;4969543;28;20440;-74
2021/07/15 17:41:14;;;;;;;24.03;21.77;;;22.60;99.90;;;;;;4977557;28;20448;-75
2021/07/15 17:43:41;;;;;;;23.93;21.63;;;22.50;99.90;;;;;;4975103;28;20804;-75
2021/07/15 17:46:07;;;;;;;24.03;21.70;;;22.40;99.90;;;;;;4976012;28;20427;-74
2021/07/15 17:48:34;;;;;;;25.63;23.23;;;22.30;99.90;;;;;;4958342;28;20464;-76
2021/07/15 17:51:00;;;;;;;26.47;23.80;;;22.30;99.90;;;;;;4976408;28;20467;-76
2021/07/15 17:53:26;;;;;;;29.70;26.93;;;22.50;99.90;;;;;;4975778;28;20428;-75
2021/07/15 17:55:52;;;;;;;31.50;28.40;;;22.40;99.90;;;;;;4975436;28;20409;-77
2021/07/15 17:58:17;;;;;;;31.03;28.17;;;22.30;99.90;;;;;;4975749;28;20580;-75
2021/07/15 18:00:43;;;;;;;32.90;29.70;;;22.30;99.90;;;;;;4975662;28;20553;-76
2021/07/15 18:03:10;;;;;;;29.70;26.93;;;22.20;99.90;;;;;;4975496;28;20749;-76
2021/07/15 18:05:37;;;;;;;33.37;30.17;;;22.20;99.90;;;;;;4957618;28;20291;-76
2021/07/15 18:08:03;;;;;;;34.77;31.47;;;22.20;99.90;;;;;;4975676;28;20522;-76
2021/07/15 18:10:30;;;;;;;35.90;32.50;;;22.10;99.90;;;;;;4975768;28;20432;-76
2021/07/15 18:12:58;;;;;;;36.67;32.87;;;22.00;99.90;;;;;;4975795;28;20988;-76
2021/07/15 18:15:23;;;;;;;36.73;32.87;;;21.70;99.90;;;;;;4975830;28;20492;-76
2021/07/15 18:17:50;;;;;;;38.50;34.47;;;21.60;99.90;;;;;;4975627;28;20836;-76
2021/07/15 18:20:18;;;;;;;34.77;31.37;;;21.60;99.90;;;;;;4958194;28;20538;-76
2021/07/15 18:22:45;;;;;;;33.57;30.07;;;21.60;99.90;;;;;;4975245;28;20444;-77
2021/07/15 18:25:14;;;;;;;34.80;31.17;;;21.60;99.90;;;;;;4975536;28;20407;-76
2021/07/15 18:27:40;;;;;;;33.20;29.57;;;21.60;99.90;;;;;;4975829;28;20412;-77
2021/07/15 18:30:09;;;;;;;35.37;31.60;;;21.70;99.90;;;;;;4958106;28;21001;-77
2021/07/15 18:32:34;;;;;;;36.57;32.60;;;21.80;99.90;;;;;;4974962;28;20200;-77
2021/07/15 18:35:00;;;;;;;35.07;31.27;;;21.80;99.90;;;;;;4975189;28;20404;-75
2021/07/15 18:37:26;;;;;;;34.47;30.87;;;21.70;99.90;;;;;;4957920;28;20212;-77
2021/07/15 18:39:51;;;;;;;36.30;31.67;;;21.70;99.90;;;;;;4977801;28;20267;-76
2021/07/15 18:42:17;;;;;;;34.60;30.90;;;21.70;99.90;;;;;;4976391;28;20197;-77
2021/07/15 18:44:43;;;;;;;35.93;32.13;;;21.80;99.90;;;;;;4976999;28;20263;-78
2021/07/15 18:47:09;;;;;;;35.37;31.70;;;21.70;99.90;;;;;;4975834;28;20459;-76
2021/07/15 18:49:35;;;;;;;37.10;33.17;;;21.50;99.90;;;;;;4975562;28;20197;-75
2021/07/15 18:52:01;;;;;;;36.90;32.60;;;21.50;99.90;;;;;;4975352;28;20432;-77
2021/07/15 18:54:27;;;;;;;37.63;32.60;;;21.40;99.90;;;;;;4975567;28;20195;-78
2021/07/15 18:56:53;;;;;;;35.53;31.17;;;21.20;99.90;;;;;;4975183;28;20479;-76
2021/07/15 18:59:20;;;;;;;38.07;33.17;;;21.10;99.90;;;;;;4975328;28;20185;-76
2021/07/15 19:01:47;;;;;;;34.77;31.00;;;21.10;99.90;;;;;;4975459;28;20408;-76
2021/07/15 19:04:13;;;;;;;36.87;32.23;;;21.20;99.90;;;;;;4974561;28;20770;-76
2021/07/15 19:06:39;;;;;;;36.33;32.37;;;21.10;99.90;;;;;;4974890;28;20400;-75
2021/07/15 19:09:07;;;;;;;35.00;31.20;;;21.10;99.90;;;;;;4974445;28;20463;-76
2021/07/15 19:11:36;;;;;;;34.93;31.07;;;21.10;99.90;;;;;;4978617;28;20169;-75
2021/07/15 19:14:03;;;;;;;31.77;28.37;;;21.10;99.90;;;;;;4978701;28;20454;-76
2021/07/15 19:16:29;;;;;;;34.33;30.10;;;21.20;99.90;;;;;;4978483;28;20439;-75
2021/07/15 19:18:54;;;;;;;32.87;28.90;;;21.20;99.90;;;;;;4978529;28;20482;-75
2021/07/15 19:21:20;;;;;;;31.63;28.17;;;21.20;99.90;;;;;;4960870;28;20436;-75
2021/07/15 19:23:46;;;;;;;32.43;28.90;;;21.10;99.90;;;;;;4978669;28;20204;-76
2021/07/15 19:26:12;;;;;;;29.67;26.43;;;21.00;99.90;;;;;;4978709;28;20179;-76
2021/07/15 19:28:37;;;;;;;29.43;26.30;;;20.90;99.90;;;;;;4978868;28;20451;-76
2021/07/15 19:31:08;;;;;;;29.37;26.23;;;20.90;99.90;;;;;;4978491;28;20184;-76
2021/07/15 19:33:34;;;;;;;33.23;28.60;;;20.90;99.90;;;;;;4978816;28;20189;-76
2021/07/15 19:35:59;;;;;;;31.17;27.50;;;20.90;99.90;;;;;;4982574;28;20474;-77
2021/07/15 19:38:25;;;;;;;35.30;30.00;;;20.80;99.90;;;;;;4979234;28;20634;-76
2021/07/15 19:40:50;;;;;;;34.37;30.57;;;20.70;99.90;;;;;;4979078;28;20538;-76
2021/07/15 19:43:16;;;;;;;39.37;31.77;;;20.70;99.90;;;;;;4979297;28;20207;-77
2021/07/15 19:45:42;;;;;;;34.50;30.50;;;20.60;99.90;;;;;;4978749;28;20633;-76
2021/07/15 19:48:07;;;;;;;34.43;28.70;;;20.60;99.90;;;;;;4978853;28;20804;-76
2021/07/15 19:50:33;;;;;;;37.37;32.77;;;20.60;99.90;;;;;;4961232;28;20182;-76
2021/07/15 19:52:59;;;;;;;36.00;30.30;;;20.60;99.90;;;;;;4978046;28;20243;-76
2021/07/15 19:55:25;;;;;;;37.97;30.70;;;20.50;99.90;;;;;;4978615;28;20491;-76
2021/07/15 19:57:51;;;;;;;34.77;30.00;;;20.40;99.90;;;;;;4979296;28;20173;-76
2021/07/15 20:00:23;;;;;;;39.57;31.00;;;20.50;99.90;;;;;;4978451;28;20173;-77
2021/07/15 20:02:48;;;;;;;36.87;31.87;;;20.40;99.90;;;;;;4978111;28;20432;-76
2021/07/15 20:05:16;;;;;;;37.43;32.00;;;20.40;99.90;;;;;;4977374;28;20439;-75
2021/07/15 20:07:42;;;;;;;38.13;32.27;;;20.40;99.90;;;;;;4977998;28;20408;-76
2021/07/15 20:10:11;;;;;;;39.70;34.07;;;20.30;99.90;;;;;;4977735;28;20415;-77
2021/07/15 20:12:38;;;;;;;37.07;30.97;;;20.20;99.90;;;;;;4977695;28;20432;-76
2021/07/15 20:15:05;;;;;;;38.30;28.80;;;20.10;99.90;;;;;;4977732;28;20893;-77
2021/07/15 20:17:32;;;;;;;30.80;26.23;;;20.10;99.90;;;;;;4977437;28;21011;-76
2021/07/15 20:19:59;;;;;;;31.63;25.80;;;20.00;99.90;;;;;;4977835;28;20420;-76
2021/07/15 20:22:24;;;;;;;34.17;26.70;;;19.90;99.90;;;;;;4982805;28;20519;-77
2021/07/15 20:24:50;;;;;;;27.77;24.00;;;19.80;99.90;;;;;;4983114;28;20444;-77
2021/07/15 20:27:15;;;;;;;33.17;24.83;;;19.80;99.90;;;;;;4961291;28;20271;-76
2021/07/15 20:29:44;;;;;;;24.10;21.37;;;19.80;99.90;;;;;;4960199;28;20196;-77
2021/07/15 20:32:10;;;;;;;27.60;22.77;;;19.70;99.90;;;;;;4978319;28;20212;-76
2021/07/15 20:34:35;;;;;;;27.97;22.27;;;19.70;99.90;;;;;;4977717;28;20408;-74
2021/07/15 20:37:01;;;;;;;22.67;19.77;;;19.70;99.90;;;;;;4978103;28;20582;-76
2021/07/15 20:39:26;;;;;;;25.03;20.37;;;19.70;99.90;;;;;;4977940;28;20169;-76
2021/07/15 20:41:52;;;;;;;26.10;21.73;;;19.70;99.90;;;;;;4977862;28;20248;-76
2021/07/15 20:44:17;;;;;;;30.23;23.47;;;19.70;99.90;;;;;;4977426;28;20184;-77
2021/07/15 20:46:43;;;;;;;29.30;22.20;;;19.70;99.90;;;;;;4976694;28;20181;-76
2021/07/15 20:49:08;;;;;;;28.23;23.03;;;19.60;99.90;;;;;;4978158;28;20209;-76
2021/07/15 20:51:34;;;;;;;25.47;21.43;;;19.60;99.90;;;;;;4982630;28;20207;-76
2021/07/15 20:53:59;;;;;;;32.97;25.23;;;19.70;99.90;;;;;;4979917;28;20521;-76
2021/07/15 20:56:25;;;;;;;37.60;24.60;;;19.70;99.90;;;;;;4962579;28;20243;-77
2021/07/15 20:58:51;;;;;;;32.80;26.53;;;19.60;99.90;;;;;;4987829;28;20233;-77
2021/07/15 21:01:17;;;;;;;31.47;25.80;;;19.50;99.90;;;;;;4975031;28;20218;-77
2021/07/15 21:03:43;;;;;;;32.30;25.23;;;19.50;99.90;;;;;;4984109;28;20444;-77
2021/07/15 21:06:08;;;;;;;30.97;26.10;;;19.50;99.90;;;;;;4977776;28;20503;-76
2021/07/15 21:08:34;;;;;;;36.80;27.00;;;19.50;99.90;;;;;;4977695;28;20197;-77
2021/07/15 21:11:00;;;;;;;31.43;26.33;;;19.50;99.90;;;;;;4977618;28;20269;-77
2021/07/15 21:13:25;;;;;;;33.90;26.70;;;19.50;99.90;;;;;;4980998;28;20228;-77
2021/07/15 21:15:51;;;;;;;30.70;24.57;;;19.50;99.90;;;;;;4980148;28;20268;-77
2021/07/15 21:18:16;;;;;;;31.30;25.23;;;19.60;99.90;;;;;;4977954;28;20245;-77
2021/07/15 21:20:42;;;;;;;30.47;25.77;;;19.70;99.90;;;;;;4978739;28;20213;-76
2021/07/15 21:23:08;;;;;;;33.20;25.97;;;19.60;99.90;;;;;;4977570;28;20212;-77
2021/07/15 21:25:35;;;;;;;30.47;24.73;;;19.70;99.90;;;;;;4979053;28;20184;-76
2021/07/15 21:28:01;;;;;;;28.30;23.13;;;19.70;99.90;;;;;;4981353;28;20476;-75
2021/07/15 21:30:26;;;;;;;29.27;24.50;;;19.70;99.90;;;;;;4964578;28;20467;-76
2021/07/15 21:32:52;;;;;;;29.43;25.17;;;19.80;99.90;;;;;;4980960;28;20287;-76
2021/07/15 21:35:18;;;;;;;32.03;26.03;;;19.70;99.90;;;;;;4982789;28;20179;-76
2021/07/15 21:37:44;;;;;;;32.20;25.73;;;19.70;99.90;;;;;;4983489;28;20275;-77
2021/07/15 21:40:10;;;;;;;33.63;24.20;;;19.70;99.90;;;;;;4982624;28;20201;-77
2021/07/15 21:42:36;;;;;;;36.73;24.20;;;19.70;99.90;;;;;;4978337;28;20456;-76
2021/07/15 21:45:03;;;;;;;34.43;24.67;;;19.60;99.90;;;;;;4981934;28;20924;-76
2021/07/15 21:47:29;;;;;;;32.80;25.73;;;19.60;99.90;;;;;;4984418;28;20165;-76
2021/07/15 21:49:55;;;;;;;30.17;25.13;;;19.60;99.90;;;;;;4977086;28;20463;-76
2021/07/15 21:52:20;;;;;;;31.77;26.50;;;19.40;99.90;;;;;;4977716;28;20267;-76
2021/07/15 21:54:46;;;;;;;37.07;26.73;;;19.50;99.90;;;;;;4959714;28;20316;-77
2021/07/15 21:57:11;;;;;;;40.50;28.87;;;19.40;99.90;;;;;;4977693;28;20169;-79
2021/07/15 21:59:37;;;;;;;35.60;27.07;;;19.40;99.90;;;;;;4977412;28;20179;-77
2021/07/15 22:02:04;;;;;;;39.77;26.70;;;19.20;99.90;;;;;;4977872;28;20181;-75
2021/07/15 22:04:32;;;;;;;38.47;25.90;;;19.20;99.90;;;;;;4960134;28;20514;-77
2021/07/15 22:06:57;;;;;;;40.63;27.57;;;19.20;99.90;;;;;;4978083;28;20495;-77
2021/07/15 22:09:23;;;;;;;35.60;25.87;;;19.20;99.90;;;;;;4960324;28;20988;-76
2021/07/15 22:11:49;;;;;;;40.10;25.43;;;19.30;99.90;;;;;;4977546;28;20208;-77
2021/07/15 22:14:15;;;;;;;31.90;23.13;;;19.20;99.90;;;;;;4960256;28;20490;-76
2021/07/15 22:16:46;;;;;;;31.43;22.53;;;19.20;99.90;;;;;;4978458;28;20685;-77
2021/07/15 22:19:12;;;;;;;23.87;20.30;;;19.20;99.90;;;;;;4977538;28;20428;-76
2021/07/15 22:21:38;;;;;;;26.00;20.93;;;19.10;99.90;;;;;;4982299;28;20923;-76
2021/07/15 22:24:06;;;;;;;28.50;20.50;;;19.10;99.90;;;;;;4976784;28;20436;-76
2021/07/15 22:26:32;;;;;;;24.97;18.63;;;19.20;99.90;;;;;;4976701;28;20416;-76
2021/07/15 22:28:58;;;;;;;21.17;18.93;;;19.10;99.90;;;;;;4980462;28;21111;-77
2021/07/15 22:31:24;;;;;;;22.43;16.87;;;19.00;99.90;;;;;;4958854;28;20500;-77
2021/07/15 22:33:49;;;;;;;20.10;17.40;;;19.00;99.90;;;;;;4958641;28;20511;-76
2021/07/15 22:36:18;;;;;;;24.20;18.53;;;18.90;99.90;;;;;;4975413;28;20180;-76
2021/07/15 22:38:44;;;;;;;25.37;17.70;;;18.90;99.90;;;;;;4976096;28;20195;-75